Ikast, Denmark
Current Conditions -  °F | °C
As of 1:20 AM on Thursday 23 Oct 2014 (Local Time) from EKKA Reporting Station
Drizzle Drizzle  
Wind Chill: 52°   Ceiling: 400
Heat Index: 52°   Visibility: 1.8mi
Dew Point: 52°   Wind: 9mph
Humidity: 100%   Direction: 270°W
Pressure: 30"   Gusts: NA
Location:  56.14°N, 9.16°E
Report Text: EKKA 222320Z 27008KT 3000 -DZ BR SCT003 BKN004 11/11 Q1016
Loading
Personal Weather Stations






























Interactive Weather Map
Tropical Storm Tracking
New forecast layout! Learn more

10-Day Weather Forecast

Advertisements
Track Severe Weather on mobile